Latest Weather Observations for Narrabri

IDN60801

Issued at 5:35 pm EST Friday 25 April 2014 (issued every 30 minutes, with the page automatically refreshed every 10 minutes)

About weather observations | Map of weather stations | Latest weather observations for NSW | Other Formats
Station Details ID: 054038 Name: NARRABRI AIRPORT AWS Lat: -30.32 Lon: 149.83 Height: 229.02 m
Data from the previous 72 hours. | See also: Recent months at Narrabri
Date/Time
EST
Temp
°C
App
Temp
°C
Dew
Point
Rel
Hum
%
Delta-T
°C
Wind Press
QNH
hPa
Press
MSL
hPa
Rain
since 9 am
mm
Dir
 
Spd
km/h
Gust
km/h
Spd
kts
Gust
kts
25/05:30pm 23.1 21.6 10.5 45 7.0 NE 9 9 5 5 1015.9 - 0.0
25/05:00pm 25.8 23.6 9.2 35 9.2 NE 11 13 6 7 1015.6 1014.9 0.0
25/04:30pm 27.9 26.3 8.7 30 10.6 NE 7 11 4 6 1015.5 - 0.0
25/04:00pm 29.1 28.5 7.6 26 11.7 CALM 0 6 0 3 1015.4 1014.7 0.0
25/03:30pm 29.2 27.0 7.7 26 11.8 W 9 13 5 7 1015.6 - 0.0
25/03:00pm 28.9 27.0 7.5 26 11.6 NNW 7 13 4 7 1015.7 1015.0 0.0
25/02:30pm 29.2 27.6 8.8 28 11.4 NW 7 17 4 9 1015.9 - 0.0
25/02:00pm 28.8 27.1 10.0 31 10.7 NNE 9 17 5 9 1016.3 1015.6 0.0
25/01:30pm 27.9 27.0 10.6 34 9.9 SSE 6 15 3 8 1016.7 - 0.0
25/01:00pm 27.3 26.8 12.5 40 8.7 ENE 7 13 4 7 1017.2 1016.5 0.0
25/12:30pm 26.1 25.7 12.9 44 7.8 S 7 11 4 6 1017.9 - 0.0
25/12:00pm 24.6 24.5 16.1 59 5.2 S 11 13 6 7 1018.4 1017.7 0.0
25/11:30am 23.5 23.3 14.8 58 5.2 SSW 9 17 5 9 1018.8 - 0.0
25/11:00am 23.5 24.5 14.2 56 5.5 S 2 7 1 4 1019.1 1018.4 0.0
25/10:30am 22.1 22.2 14.5 62 4.5 SW 7 7 4 4 1019.3 - 0.0
25/10:00am 22.9 23.1 14.7 60 4.9 N 7 11 4 6 1019.5 1018.8 0.0
25/09:30am 21.8 21.6 14.7 64 4.2 S 9 13 5 7 1019.4 - 0.0
25/09:00am 22.1 21.8 13.2 57 5.2 SE 7 9 4 5 1019.6 1018.9 0.6
25/08:30am 21.4 20.4 12.3 56 5.2 S 9 13 5 7 1019.6 - 0.6
25/08:00am 21.6 19.5 12.5 56 5.2 E 15 19 8 10 1019.2 1018.5 0.6
25/07:30am 18.1 16.0 12.3 69 3.2 ENE 15 19 8 10 1018.8 - 0.6
25/07:00am 17.2 14.6 11.9 71 2.9 E 17 20 9 11 1018.5 1017.8 0.6
25/06:30am 17.2 15.5 12.3 73 2.7 E 13 17 7 9 1018.4 - 0.6
25/06:00am 16.8 15.0 13.3 80 2.0 ENE 15 19 8 10 1018.1 1017.4 0.6
25/05:30am 18.0 15.4 13.3 74 2.7 E 19 24 10 13 1017.6 - 0.6
25/05:00am 17.6 15.0 13.7 78 2.2 E 20 24 11 13 1017.6 1016.9 0.6
25/04:30am 17.3 15.2 13.6 79 2.1 E 17 22 9 12 1017.5 - 0.6
25/04:00am 16.9 14.6 14.2 84 1.6 ENE 19 20 10 11 1018.0 1017.3 0.6
25/03:30am 17.8 15.0 13.1 74 2.7 E 20 28 11 15 1017.9 - 0.2
25/03:00am 18.3 16.3 12.7 70 3.2 E 15 20 8 11 1017.4 1016.7 0.0
25/02:30am 19.1 16.5 12.1 64 3.9 S 17 24 9 13 1017.2 - 0.0
25/02:00am 19.7 16.9 11.5 59 4.6 SW 17 26 9 14 1017.3 1016.6 0.0
25/01:30am 19.4 16.7 10.4 56 4.9 WSW 15 19 8 10 1017.2 - 0.0
25/01:07am 17.0 11.9 10.6 66 3.5 WNW 28 33 15 18 1017.0 - 0.0
25/01:00am 15.9 14.6 9.3 65 3.4 NW 6 7 3 4 1016.3 1015.6 0.0
25/12:30am 16.8 16.2 9.0 60 4.1 SSE 2 7 1 4 1015.8 - 0.0
25/12:00am 17.9 15.6 9.0 56 4.7 E 11 15 6 8 1015.7 1015.0 0.0
 
Date/Time
EST
Temp
°C
App
Temp
°C
Dew
Point
Rel
Hum
%
Delta-T
°C
Wind Press
QNH
hPa
Press
MSL
hPa
Rain
since 9 am
mm
Dir
 
Spd
km/h
Gust
km/h
Spd
kts
Gust
kts
24/11:30pm 21.5 18.8 9.1 45 6.7 ESE 13 17 7 9 1015.7 - 0.0
24/11:00pm 22.1 18.7 9.3 44 6.9 ESE 17 20 9 11 1015.9 1015.2 0.0
24/10:30pm 22.4 18.7 10.2 46 6.7 SE 20 28 11 15 1016.1 - 0.0
24/10:00pm 19.3 18.9 11.1 59 4.5 SE 4 7 2 4 1016.3 1015.6 0.0
24/09:30pm 18.6 17.1 11.9 65 3.7 S 11 15 6 8 1016.3 - 0.0
24/09:00pm 19.3 18.0 11.3 60 4.4 S 9 11 5 6 1016.0 1015.3 0.0
24/08:30pm 19.8 17.3 11.0 57 4.9 E 15 17 8 9 1015.6 - 0.0
24/08:00pm 20.5 17.7 11.2 55 5.2 E 17 19 9 10 1015.4 1014.7 0.0
24/07:30pm 20.9 18.1 11.3 54 5.4 E 17 19 9 10 1015.3 - 0.0
24/07:00pm 20.6 18.6 11.5 56 5.1 ENE 13 17 7 9 1015.0 1014.3 0.0
24/06:30pm 21.3 19.8 10.5 50 6.0 NNE 9 11 5 6 1014.8 - 0.0
24/06:00pm 23.6 23.2 9.6 41 7.7 S 2 6 1 3 1014.4 1013.7 0.0
24/05:30pm 24.4 22.8 10.3 41 7.9 SW 9 15 5 8 1014.2 - 0.0
24/05:00pm 25.3 23.1 10.7 40 8.2 W 13 17 7 9 1014.1 1013.4 0.0
24/04:30pm 27.3 25.9 9.6 33 9.9 WNW 7 9 4 5 1013.7 - 0.0
24/04:00pm 28.2 26.5 8.5 29 10.9 NW 7 9 4 5 1013.6 1012.9 0.0
24/03:30pm 29.6 27.2 8.6 27 11.7 NNW 11 15 6 8 1013.6 - 0.0
24/03:00pm 29.7 26.7 9.3 28 11.5 NW 15 24 8 13 1013.8 1013.1 0.0
24/02:30pm 29.5 27.0 9.6 29 11.3 NW 13 24 7 13 1013.9 - 0.0
24/02:00pm 29.7 26.8 9.8 29 11.3 NNW 15 20 8 11 1014.2 1013.5 0.0
24/01:30pm 29.2 26.7 9.8 30 11.0 NNW 13 24 7 13 1014.6 - 0.0
24/01:00pm 28.6 25.9 10.3 32 10.4 NNW 15 28 8 15 1015.1 1014.4 0.0
24/12:30pm 28.6 25.1 10.8 33 10.2 NNW 20 30 11 16 1015.7 - 0.0
24/12:00pm 28.4 24.8 10.6 33 10.2 NNW 20 28 11 15 1016.1 1015.5 0.0
24/11:30am 28.0 24.6 10.7 34 9.9 NNW 19 32 10 17 1016.5 - 0.0
24/11:00am 27.5 24.3 11.1 36 9.4 N 19 26 10 14 1017.2 1016.5 0.0
24/10:30am 26.3 22.7 10.5 37 8.9 NNW 20 28 11 15 1017.5 - 0.0
24/10:00am 25.9 22.3 10.5 38 8.7 N 20 26 11 14 1017.6 1016.9 0.0
24/09:30am 25.4 21.9 10.8 40 8.3 N 20 28 11 15 1017.6 - 0.0
24/09:00am 24.9 21.3 10.7 40 8.0 N 20 24 11 13 1017.6 1016.9 0.0
24/08:30am 24.2 21.6 10.8 43 7.5 N 15 22 8 12 1017.5 - 0.0
24/08:00am 22.8 21.1 11.2 48 6.5 NNE 11 15 6 8 1017.2 1016.5 0.0
24/07:30am 19.4 18.6 12.9 66 3.7 ENE 9 13 5 7 1016.7 - 0.0
24/07:00am 17.8 16.0 10.7 63 3.9 NNE 11 13 6 7 1016.5 1015.8 0.0
24/06:30am 16.4 13.8 10.7 69 3.1 NE 15 19 8 10 1015.9 - 0.0
24/06:00am 16.0 13.8 10.7 71 2.8 NNE 13 15 7 8 1015.8 1015.1 0.0
24/05:30am 12.2 11.1 8.3 77 1.9 ENE 4 9 2 5 1015.8 - 0.0
24/05:00am 15.6 13.3 10.6 72 2.7 NE 13 15 7 8 1015.5 1014.8 0.0
24/04:30am 14.2 12.0 9.2 72 2.6 ENE 11 15 6 8 1015.5 - 0.0
24/04:00am 11.9 11.2 8.7 81 1.6 SSW 2 7 1 4 1015.5 1014.8 0.0
24/03:30am 13.9 12.4 10.7 81 1.7 ENE 9 13 5 7 1015.3 - 0.0
24/03:00am 12.9 12.9 9.7 81 1.7 CALM 0 0 0 0 1015.4 1014.7 0.0
24/02:30am 12.9 11.7 9.5 80 1.8 S 6 7 3 4 1015.6 - 0.0
24/02:00am 13.0 12.9 9.4 79 1.8 CALM 0 0 0 0 1015.7 1015.0 0.0
24/01:30am 14.6 13.3 9.8 73 2.5 NNE 7 7 4 4 1015.8 - 0.0
24/01:00am 14.7 13.3 9.5 71 2.7 NE 7 9 4 5 1016.0 1015.3 0.0
24/12:30am 14.0 13.2 9.6 75 2.3 ESE 4 9 2 5 1016.1 - 0.0
24/12:00am 15.2 13.5 10.0 71 2.7 NE 9 11 5 6 1016.4 1015.7 0.0
 
Date/Time
EST
Temp
°C
App
Temp
°C
Dew
Point
Rel
Hum
%
Delta-T
°C
Wind Press
QNH
hPa
Press
MSL
hPa
Rain
since 9 am
mm
Dir
 
Spd
km/h
Gust
km/h
Spd
kts
Gust
kts
23/11:30pm 15.9 14.6 9.8 67 3.2 NE 7 9 4 5 1016.5 - 0.0
23/11:00pm 16.3 16.2 9.3 63 3.7 CALM 0 0 0 0 1016.6 1015.9 0.0
23/10:30pm 17.6 16.5 10.5 63 3.8 S 7 9 4 5 1016.6 - 0.0
23/10:00pm 16.0 14.4 10.3 69 3.0 SSW 9 13 5 7 1016.5 1015.8 0.0
23/09:30pm 18.7 17.0 9.8 56 4.8 E 9 13 5 7 1016.1 - 0.0
23/09:00pm 20.0 17.3 9.0 49 5.9 E 13 17 7 9 1016.0 1015.3 0.0
23/08:30pm 20.1 17.1 9.4 50 5.7 E 15 19 8 10 1015.9 - 0.0
23/08:00pm 20.0 16.8 9.9 52 5.5 E 17 19 9 10 1015.8 1015.1 0.0
23/07:30pm 20.6 17.4 9.8 50 5.9 E 17 19 9 10 1015.6 - 0.0
23/07:00pm 20.8 17.8 9.4 48 6.1 E 15 19 8 10 1015.5 1014.8 0.0
23/06:30pm 21.3 18.7 9.2 46 6.5 E 13 15 7 8 1015.5 - 0.0
23/06:00pm 21.1 19.6 9.0 46 6.5 N 7 9 4 5 1015.3 1014.6 0.0
23/05:30pm 24.8 23.5 9.1 37 8.6 NW 6 9 3 5 1015.1 - 0.0
23/05:00pm 27.0 25.1 8.9 32 10.0 WNW 9 11 5 6 1014.9 1014.2 0.0
23/04:30pm 28.1 25.5 7.9 28 11.0 WNW 11 15 6 8 1014.8 - 0.0
23/04:00pm 26.9 23.1 7.4 29 10.5 WNW 17 24 9 13 1014.9 1014.2 0.0
23/03:30pm 28.8 26.4 10.0 31 10.7 NNW 13 17 7 9 1014.9 - 0.0
23/03:00pm 27.7 23.7 9.0 31 10.4 N 20 30 11 16 1014.9 1014.2 0.0
23/02:30pm 27.6 24.2 9.0 31 10.3 N 17 28 9 15 1015.1 - 0.0
23/02:00pm 28.4 23.8 9.6 31 10.6 N 24 32 13 17 1015.3 1014.6 0.0
23/01:30pm 28.2 24.0 9.9 32 10.3 NNW 22 32 12 17 1015.6 - 0.0
23/01:00pm 28.5 23.7 10.2 32 10.4 NNW 26 35 14 19 1016.0 1015.3 0.0
23/12:30pm 27.6 23.2 10.3 34 9.8 NNW 24 37 13 20 1016.7 - 0.0
23/12:00pm 27.1 22.2 11.2 37 9.1 N 28 39 15 21 1017.3 1016.6 0.0
23/11:30am 26.7 21.5 10.4 36 9.2 N 28 37 15 20 1017.6 - 0.0
23/11:00am 26.5 20.8 11.0 38 8.8 N 32 43 17 23 1018.1 1017.4 0.0
23/10:30am 26.2 20.2 10.0 36 9.1 N 32 37 17 20 1018.6 - 0.0
23/10:00am 25.6 19.9 11.0 40 8.3 N 32 43 17 23 1018.9 1018.2 0.0
23/09:30am 24.9 19.1 10.7 40 8.0 N 32 39 17 21 1018.8 - 0.0
23/09:00am 24.0 18.2 10.7 43 7.4 N 32 39 17 21 1018.9 1018.2 0.0
23/08:30am 23.0 17.0 10.1 44 7.1 N 32 41 17 22 1018.9 - 0.0
23/08:00am 21.8 16.9 10.0 47 6.5 NNE 26 33 14 18 1018.8 1018.1 0.0
23/07:30am 20.4 17.2 9.9 51 5.7 N 17 22 9 12 1018.7 - 0.0
23/07:00am 19.4 14.5 9.9 54 5.1 NNE 26 30 14 16 1018.6 1017.9 0.0
23/06:30am 18.7 14.1 9.8 56 4.8 NNE 24 32 13 17 1018.3 - 0.0
23/06:00am 19.1 14.6 9.9 55 4.9 NNE 24 30 13 16 1018.2 1017.5 0.0
23/05:30am 18.7 15.0 10.0 57 4.7 NNE 20 26 11 14 1018.1 - 0.0
23/05:00am 18.3 15.6 10.4 60 4.3 NE 15 19 8 10 1018.0 1017.3 0.0
23/04:30am 17.6 14.6 10.7 64 3.7 NNE 17 20 9 11 1017.8 - 0.0
23/04:00am 17.5 14.6 10.9 65 3.6 NNE 17 19 9 10 1017.7 1017.0 0.0
23/03:30am 18.1 16.4 11.2 64 3.8 NE 11 13 6 7 1017.8 - 0.0
23/03:00am 17.7 16.0 11.3 66 3.5 NE 11 15 6 8 1017.7 1017.0 0.0
23/02:30am 17.9 16.4 10.5 62 4.0 N 9 11 5 6 1017.8 - 0.0
23/02:00am 18.5 17.1 10.8 61 4.2 NW 9 11 5 6 1017.9 1017.2 0.0
23/01:30am 18.6 18.5 10.9 61 4.2 WSW 2 7 1 4 1018.1 - 0.0
23/01:00am 19.5 18.6 11.3 59 4.5 W 7 11 4 6 1018.0 1017.3 0.0
23/12:30am 19.3 18.0 11.3 60 4.4 SW 9 15 5 8 1017.9 - 0.0
23/12:00am 19.5 18.1 10.8 57 4.8 WNW 9 15 5 8 1017.7 1017.0 0.0
 
Date/Time
EST
Temp
°C
App
Temp
°C
Dew
Point
Rel
Hum
%
Delta-T
°C
Wind Press
QNH
hPa
Press
MSL
hPa
Rain
since 9 am
mm
Dir
 
Spd
km/h
Gust
km/h
Spd
kts
Gust
kts
22/11:30pm 21.7 18.8 11.1 51 5.9 NNE 17 20 9 11 1017.3 - 0.0
22/11:00pm 21.9 18.4 11.0 50 6.1 NNE 20 24 11 13 1017.3 1016.6 0.0
22/10:30pm 21.9 18.5 11.3 51 5.9 NNE 20 24 11 13 1017.4 - 0.0
22/10:00pm 21.4 18.5 11.1 52 5.7 NNE 17 20 9 11 1017.4 1016.7 0.0
22/09:30pm 21.4 18.9 10.9 51 5.8 NNE 15 20 8 11 1017.4 - 0.0
22/09:00pm 20.5 19.3 11.7 57 4.9 NE 9 13 5 7 1017.3 1016.6 0.0
22/08:30pm 20.0 17.6 11.5 58 4.7 ENE 15 17 8 9 1017.1 - 0.0
22/08:00pm 19.6 17.2 11.4 59 4.5 ENE 15 17 8 9 1017.1 1016.4 0.0
22/07:30pm 20.2 17.9 11.7 58 4.8 ENE 15 17 8 9 1017.0 - 0.0
22/07:00pm 20.4 18.4 11.6 57 4.9 NE 13 17 7 9 1016.8 1016.1 0.0
22/06:30pm 20.4 18.3 11.1 55 5.2 NNE 13 15 7 8 1016.7 - 0.0
22/06:00pm 21.8 20.4 10.9 50 6.1 N 9 11 5 6 1016.5 1015.8 0.0

Other Formats:

Comma delimited format used in spreadsheet applications
http://www.bom.gov.au/fwo/IDN60801/IDN60801.95734.axf

JavaScript Object Notation format (JSON) in row-major order
http://www.bom.gov.au/fwo/IDN60801/IDN60801.95734.json